Terminal Aerodrome Forecast
Issued by NWS Blacksburg, VA

Current Version | Previous Version | Text Only | Print | Product List | Glossary Off
Versions: 1 2 3 4 5 6 7 8 9 10 11 12 13 14 15 16 17 18 19 20 21 22 23 24 25 26 27 28 29 30 31 32 33 34 35 36 37 38 39 40 41 42

000
FTUS41 KRNK 181137
TAFBLF
TAF
KBLF 181137Z 1812/1912 27012G22KT P6SM BKN025 OVC035
     FM181400 28015G25KT P6SM OVC025
     FM181700 29015G25KT P6SM -SHRA BKN025 OVC035
     FM182300 30012G22KT P6SM -SHRA OVC015
     FM190700 31008G16KT P6SM OVC018=

USA.gov is the U.S. government's official web portal to all federal, state and local government web resources and services.